Time;durP1;ratioP1;P1;durP2;ratioP2;P2;SDS_P1;SDS_P2;PMS_P1;PMS_P2;Temp;Humidity;BMP_temperature;BMP_pressure;BME280_temperature;BME280_humidity;BME280_pressure;Samples;Min_cycle;Max_cycle;Signal;HPM_P1;HPM_P2
2022/05/27 00:03:42;;;;;;;4.28;1.42;;;;;;;;;;8307487;28;20842;-60
2022/05/27 00:07:42;;;;;;;4.35;1.40;;;;;;;;;;8306160;28;20033;-58
2022/05/27 00:11:43;;;;;;;2.45;1.33;;;;;;;;;;8306396;28;20059;-58
2022/05/27 00:15:43;;;;;;;4.50;1.33;;;;;;;;;;8305272;28;20037;-59
2022/05/27 00:19:43;;;;;;;3.07;1.47;;;;;;;;;;8309583;28;20135;-59
2022/05/27 00:23:44;;;;;;;2.75;1.38;;;;;;;;;;8307792;28;20036;-58
2022/05/27 00:27:44;;;;;;;3.58;1.75;;;;;;;;;;8308212;28;20075;-59
2022/05/27 00:31:44;;;;;;;3.33;1.60;;;;;;;;;;8314957;28;20834;-58
2022/05/27 00:35:45;;;;;;;4.37;1.57;;;;;;;;;;8313303;28;20025;-58
2022/05/27 00:39:45;;;;;;;16.73;1.60;;;;;;;;;;8311803;28;20036;-59
2022/05/27 00:43:45;;;;;;;3.00;1.53;;;;;;;;;;8313987;28;20021;-58
2022/05/27 00:47:47;;;;;;;2.92;1.52;;;;;;;;;;8313179;28;20040;-59
2022/05/27 00:51:49;;;;;;;4.35;1.67;;;;;;;;;;8314007;28;20160;-58
2022/05/27 00:55:51;;;;;;;4.05;2.20;;;;;;;;;;8312614;28;20501;-58
2022/05/27 00:59:58;;;;;;;4.25;1.65;;;;;;;;;;8311804;28;20032;-58
2022/05/27 01:04:00;;;;;;;5.07;1.95;;;;;;;;;;8310817;28;20044;-58
2022/05/27 01:08:03;;;;;;;4.68;1.83;;;;;;;;;;8312112;28;20105;-59
2022/05/27 01:12:04;;;;;;;3.38;1.80;;;;;;;;;;8310446;28;20829;-59
2022/05/27 01:16:23;;;;;;;3.78;1.83;;;;;;;;;;8310582;28;20564;-58
2022/05/27 01:20:34;;;;;;;4.25;1.90;;;;;;;;;;8310827;28;20034;-58
2022/05/27 01:24:55;;;;;;;5.40;2.13;;;;;;;;;;8310881;28;20535;-64
2022/05/27 01:29:14;;;;;;;5.10;2.03;;;;;;;;;;8313697;28;20615;-59
2022/05/27 01:33:27;;;;;;;4.00;2.15;;;;;;;;;;8311222;28;20036;-59
2022/05/27 01:37:34;;;;;;;5.75;2.40;;;;;;;;;;8312860;28;20036;-58
2022/05/27 01:41:34;;;;;;;3.85;1.90;;;;;;;;;;8310957;28;20159;-58
2022/05/27 01:45:55;;;;;;;4.10;2.20;;;;;;;;;;8310263;28;20343;-58
2022/05/27 01:50:02;;;;;;;3.72;2.05;;;;;;;;;;8311634;28;20029;-59
2022/05/27 01:54:03;;;;;;;6.22;2.83;;;;;;;;;;8312403;28;20033;-58
2022/05/27 01:58:25;;;;;;;5.50;2.70;;;;;;;;;;8311130;28;20784;-58
2022/05/27 02:02:27;;;;;;;5.20;2.42;;;;;;;;;;8311906;28;20454;-58
2022/05/27 02:06:33;;;;;;;3.20;2.38;;;;;;;;;;8310621;28;20130;-58
2022/05/27 02:10:56;;;;;;;6.22;2.70;;;;;;;;;;8309107;28;20608;-58
2022/05/27 02:14:59;;;;;;;3.60;2.90;;;;;;;;;;8310398;28;21362;-58
2022/05/27 02:19:06;;;;;;;6.70;3.17;;;;;;;;;;8311541;28;20152;-57
2022/05/27 02:23:10;;;;;;;5.05;2.88;;;;;;;;;;8310933;28;20036;-58
2022/05/27 02:27:30;;;;;;;3.28;2.78;;;;;;;;;;8308768;28;20029;-58
2022/05/27 02:31:32;;;;;;;6.75;2.67;;;;;;;;;;8311255;28;20101;-58
2022/05/27 02:35:32;;;;;;;9.18;2.95;;;;;;;;;;8309723;28;20035;-58
2022/05/27 02:39:33;;;;;;;2.83;2.50;;;;;;;;;;8309084;28;20053;-60
2022/05/27 02:43:49;;;;;;;4.30;2.92;;;;;;;;;;8308179;28;20453;-58
2022/05/27 02:48:00;;;;;;;3.50;2.40;;;;;;;;;;8309241;28;20471;-58
2022/05/27 02:52:23;;;;;;;3.35;2.72;;;;;;;;;;8310471;28;20111;-58
2022/05/27 02:56:26;;;;;;;5.73;2.80;;;;;;;;;;8309437;28;20487;-57
2022/05/27 03:00:27;;;;;;;4.20;2.67;;;;;;;;;;8307259;28;20037;-58
2022/05/27 03:04:28;;;;;;;4.63;2.83;;;;;;;;;;8307396;28;20738;-58
2022/05/27 03:08:32;;;;;;;4.07;3.13;;;;;;;;;;8309610;28;20025;-59
2022/05/27 03:12:48;;;;;;;3.67;2.97;;;;;;;;;;8310999;28;20056;-58
2022/05/27 03:17:03;;;;;;;5.22;2.70;;;;;;;;;;8308754;28;20068;-58
2022/05/27 03:21:06;;;;;;;7.00;2.92;;;;;;;;;;8307609;28;20039;-59
2022/05/27 03:25:07;;;;;;;4.77;2.87;;;;;;;;;;8307217;28;20022;-58
2022/05/27 03:29:16;;;;;;;4.78;2.63;;;;;;;;;;8306325;28;20141;-59
2022/05/27 03:33:24;;;;;;;4.75;3.05;;;;;;;;;;8304790;28;20052;-58
2022/05/27 03:37:29;;;;;;;4.93;2.53;;;;;;;;;;8305809;28;20021;-59
2022/05/27 03:41:31;;;;;;;3.47;2.40;;;;;;;;;;8306357;28;20040;-59
2022/05/27 03:45:45;;;;;;;4.53;2.78;;;;;;;;;;8307180;28;20029;-58
2022/05/27 03:49:46;;;;;;;4.72;2.60;;;;;;;;;;8306944;28;20806;-58
2022/05/27 03:54:04;;;;;;;7.07;2.97;;;;;;;;;;8304349;28;20025;-58
2022/05/27 03:58:04;;;;;;;4.93;2.55;;;;;;;;;;8304576;28;20125;-58
2022/05/27 04:02:05;;;;;;;5.72;2.78;;;;;;;;;;8302490;28;20686;-58
2022/05/27 04:06:05;;;;;;;4.77;2.57;;;;;;;;;;8309186;28;20024;-59
2022/05/27 04:10:08;;;;;;;4.43;2.60;;;;;;;;;;8311583;28;20367;-59
2022/05/27 04:14:09;;;;;;;3.05;2.53;;;;;;;;;;8310080;28;20032;-59
2022/05/27 04:18:09;;;;;;;3.40;2.40;;;;;;;;;;8310335;28;20041;-58
2022/05/27 04:22:09;;;;;;;2.50;2.10;;;;;;;;;;8309186;28;20021;-58
2022/05/27 04:26:09;;;;;;;3.97;2.38;;;;;;;;;;8310459;28;21372;-58
2022/05/27 04:30:10;;;;;;;3.33;2.13;;;;;;;;;;8312097;28;20827;-59
2022/05/27 04:34:10;;;;;;;6.53;2.20;;;;;;;;;;8313206;28;20641;-58
2022/05/27 04:38:11;;;;;;;4.40;2.45;;;;;;;;;;8312653;28;20056;-59
2022/05/27 04:42:11;;;;;;;3.45;2.50;;;;;;;;;;8313548;28;20075;-59
2022/05/27 04:46:11;;;;;;;7.28;2.50;;;;;;;;;;8312216;28;20036;-59
2022/05/27 04:50:11;;;;;;;3.43;2.40;;;;;;;;;;8311805;28;20025;-59
2022/05/27 04:54:12;;;;;;;3.53;2.10;;;;;;;;;;8311337;28;20033;-58
2022/05/27 04:58:12;;;;;;;3.08;2.33;;;;;;;;;;8312864;28;20018;-57
2022/05/27 05:02:14;;;;;;;6.60;2.28;;;;;;;;;;8312182;28;20052;-59
2022/05/27 05:06:14;;;;;;;10.18;2.30;;;;;;;;;;8310266;28;20021;-59
2022/05/27 05:10:16;;;;;;;7.03;2.50;;;;;;;;;;8312925;28;20029;-58
2022/05/27 05:14:16;;;;;;;8.57;2.47;;;;;;;;;;8310755;28;20025;-59
2022/05/27 05:18:16;;;;;;;3.85;2.50;;;;;;;;;;8310209;28;20088;-58
2022/05/27 05:22:16;;;;;;;4.18;2.20;;;;;;;;;;8311334;28;20021;-58
2022/05/27 05:26:16;;;;;;;7.03;2.30;;;;;;;;;;8312442;28;20086;-59
2022/05/27 05:30:20;;;;;;;3.80;2.00;;;;;;;;;;8308022;28;20092;-59
2022/05/27 05:34:20;;;;;;;2.88;2.10;;;;;;;;;;8311821;28;20033;-59
2022/05/27 05:38:21;;;;;;;3.67;2.17;;;;;;;;;;8310229;28;20899;-59
2022/05/27 05:42:21;;;;;;;4.20;2.10;;;;;;;;;;8309169;28;20025;-59
2022/05/27 05:46:22;;;;;;;3.80;2.00;;;;;;;;;;8309017;28;20068;-59
2022/05/27 05:50:22;;;;;;;2.85;1.98;;;;;;;;;;8310177;28;20030;-59
2022/05/27 05:54:22;;;;;;;3.63;1.98;;;;;;;;;;8306630;28;20112;-59
2022/05/27 05:58:23;;;;;;;2.35;1.80;;;;;;;;;;8306383;28;20021;-59
2022/05/27 06:02:23;;;;;;;3.50;1.92;;;;;;;;;;8307284;28;20102;-58
2022/05/27 06:06:23;;;;;;;2.70;1.60;;;;;;;;;;8306503;28;20041;-59
2022/05/27 06:10:25;;;;;;;6.15;1.80;;;;;;;;;;8304383;28;20029;-59
2022/05/27 06:14:25;;;;;;;1.58;1.48;;;;;;;;;;8304100;28;20120;-59
2022/05/27 06:18:25;;;;;;;3.92;1.50;;;;;;;;;;8306891;28;20511;-58
2022/05/27 06:22:25;;;;;;;5.60;1.70;;;;;;;;;;8304569;28;20532;-59
2022/05/27 06:26:25;;;;;;;2.08;1.60;;;;;;;;;;8304979;28;20297;-59
2022/05/27 06:34:44;;;;;;;2.40;1.60;;;;;;;;;;8304605;28;20399;-59
2022/05/27 06:38:46;;;;;;;5.78;1.60;;;;;;;;;;8304123;28;20361;-59
2022/05/27 06:42:46;;;;;;;2.90;1.73;;;;;;;;;;8302148;28;20107;-59
2022/05/27 06:46:50;;;;;;;5.68;1.65;;;;;;;;;;8306591;28;20033;-59
2022/05/27 06:50:50;;;;;;;;;;;;;;;;;;8306519;28;20016;-58
2022/05/27 06:54:51;;;;;;;3.15;2.30;;;;;;;;;;8307231;28;19974;-58
2022/05/27 06:58:51;;;;;;;5.18;2.38;;;;;;;;;;8308498;28;20021;-59
2022/05/27 07:02:52;;;;;;;3.30;2.03;;;;;;;;;;8304193;28;20029;-59
2022/05/27 07:06:52;;;;;;;5.30;2.45;;;;;;;;;;8300485;28;20285;-58
2022/05/27 07:10:52;;;;;;;6.65;2.10;;;;;;;;;;8301726;28;20029;-59
2022/05/27 07:14:52;;;;;;;3.67;2.03;;;;;;;;;;8304207;28;20068;-59
2022/05/27 07:18:53;;;;;;;2.15;1.80;;;;;;;;;;8303147;28;20043;-59
2022/05/27 07:22:54;;;;;;;1.98;1.60;;;;;;;;;;8303401;28;20021;-58
2022/05/27 07:26:54;;;;;;;5.17;1.80;;;;;;;;;;8303666;28;20116;-58
2022/05/27 07:30:56;;;;;;;2.25;1.60;;;;;;;;;;8303020;28;20691;-58
2022/05/27 07:34:56;;;;;;;1.80;1.55;;;;;;;;;;8305444;28;20083;-58
2022/05/27 07:38:56;;;;;;;4.75;1.67;;;;;;;;;;8302187;28;20094;-59
2022/05/27 07:42:57;;;;;;;4.63;1.70;;;;;;;;;;8302380;28;20103;-58
2022/05/27 07:46:57;;;;;;;5.07;1.52;;;;;;;;;;8301659;28;20075;-59
2022/05/27 07:50:57;;;;;;;2.05;1.45;;;;;;;;;;8301070;28;20116;-59
2022/05/27 07:54:57;;;;;;;2.83;1.70;;;;;;;;;;8303833;28;20033;-58
2022/05/27 07:58:57;;;;;;;1.93;1.43;;;;;;;;;;8299079;28;20021;-58
2022/05/27 08:02:58;;;;;;;2.65;1.48;;;;;;;;;;8298109;28;20040;-58
2022/05/27 08:06:58;;;;;;;4.80;1.30;;;;;;;;;;8295895;28;20036;-59
2022/05/27 08:10:58;;;;;;;3.13;1.42;;;;;;;;;;8297421;28;20025;-58
2022/05/27 08:14:58;;;;;;;2.40;1.20;;;;;;;;;;8295543;28;20025;-59
2022/05/27 08:18:59;;;;;;;2.95;1.40;;;;;;;;;;8298638;28;20497;-58
2022/05/27 08:23:00;;;;;;;2.72;1.15;;;;;;;;;;8297540;28;20021;-58
2022/05/27 08:27:01;;;;;;;1.10;0.95;;;;;;;;;;8298278;28;20025;-58
2022/05/27 08:31:02;;;;;;;2.17;1.10;;;;;;;;;;8296484;28;20418;-59
2022/05/27 08:39:21;;;;;;;13.23;1.10;;;;;;;;;;8296599;28;20465;-59
2022/05/27 08:43:46;;;;;;;2.10;1.03;;;;;;;;;;8293723;28;20049;-59
2022/05/27 08:47:50;;;;;;;2.88;1.13;;;;;;;;;;8297751;28;20255;-59
2022/05/27 08:52:11;;;;;;;1.35;1.05;;;;;;;;;;8304745;28;20017;-59
2022/05/27 09:00:42;;;;;;;2.47;0.95;;;;;;;;;;8301351;28;20122;-59
2022/05/27 09:04:42;;;;;;;1.35;1.10;;;;;;;;;;8301523;28;20017;-59
2022/05/27 09:08:43;;;;;;;4.63;1.30;;;;;;;;;;8302517;28;20021;-59
2022/05/27 09:12:43;;;;;;;2.38;1.20;;;;;;;;;;8302624;28;20740;-59
2022/05/27 09:16:49;;;;;;;2.22;1.10;;;;;;;;;;8301009;28;20106;-58
2022/05/27 09:20:49;;;;;;;2.40;1.27;;;;;;;;;;8302653;28;20037;-58
2022/05/27 09:24:56;;;;;;;4.47;1.20;;;;;;;;;;8311194;28;20035;-59
2022/05/27 09:29:15;;;;;;;3.60;1.13;;;;;;;;;;8302168;28;20027;-59
2022/05/27 09:33:17;;;;;;;1.65;0.93;;;;;;;;;;8303341;28;20800;-59
2022/05/27 09:37:24;;;;;;;4.15;1.20;;;;;;;;;;8301943;28;20036;-59
2022/05/27 09:42:00;;;;;;;4.93;1.10;;;;;;;;;;8302877;28;20017;-59
2022/05/27 09:46:02;;;;;;;2.72;1.10;;;;;;;;;;8296782;28;20507;-59
2022/05/27 09:50:05;;;;;;;3.35;1.10;;;;;;;;;;8301259;28;20017;-59
2022/05/27 09:54:24;;;;;;;2.03;0.90;;;;;;;;;;8302524;28;20508;-60
2022/05/27 09:58:25;;;;;;;2.67;1.10;;;;;;;;;;8302686;28;20029;-59
2022/05/27 10:02:26;;;;;;;4.47;1.13;;;;;;;;;;8300294;28;20458;-59
2022/05/27 10:06:27;;;;;;;2.67;1.00;;;;;;;;;;8299926;28;20032;-59
2022/05/27 10:10:29;;;;;;;5.30;1.10;;;;;;;;;;8301356;28;20390;-59
2022/05/27 10:14:32;;;;;;;6.28;1.10;;;;;;;;;;8299703;28;20361;-59
2022/05/27 10:18:33;;;;;;;3.97;0.80;;;;;;;;;;8299266;28;20037;-58
2022/05/27 10:22:33;;;;;;;0.85;0.85;;;;;;;;;;8300377;28;20619;-58
2022/05/27 10:26:36;;;;;;;1.08;0.90;;;;;;;;;;8297685;28;20025;-59
2022/05/27 10:30:51;;;;;;;1.33;0.90;;;;;;;;;;8298944;28;20040;-59
2022/05/27 10:34:51;;;;;;;1.27;0.90;;;;;;;;;;8304187;28;20060;-59
2022/05/27 10:38:54;;;;;;;1.30;0.77;;;;;;;;;;8306019;28;20054;-60
2022/05/27 10:43:03;;;;;;;2.38;0.75;;;;;;;;;;8314978;28;20024;-59
2022/05/27 10:47:06;;;;;;;0.95;0.70;;;;;;;;;;8307223;28;20371;-60
2022/05/27 10:51:12;;;;;;;2.95;0.90;;;;;;;;;;8304832;28;20109;-60
2022/05/27 10:55:21;;;;;;;2.13;0.75;;;;;;;;;;8307983;28;20109;-58
2022/05/27 11:04:01;;;;;;;2.03;0.80;;;;;;;;;;8305661;28;20068;-59
2022/05/27 11:08:10;;;;;;;1.65;0.80;;;;;;;;;;8305305;28;20116;-63
2022/05/27 11:15:10;;;;;;;3.22;0.70;;;;;;;;;;8304023;28;20022;-59
2022/05/27 11:16:49;;;;;;;1.10;0.70;;;;;;;;;;8303094;28;20041;-59
2022/05/27 11:21:09;;;;;;;0.60;0.60;;;;;;;;;;8305940;28;20079;-59
2022/05/27 11:25:28;;;;;;;0.95;0.70;;;;;;;;;;8304634;28;20025;-60
2022/05/27 11:29:40;;;;;;;2.55;0.60;;;;;;;;;;8304851;28;20099;-59
2022/05/27 11:33:53;;;;;;;1.77;0.80;;;;;;;;;;8302921;28;20064;-59
2022/05/27 11:38:09;;;;;;;1.45;0.80;;;;;;;;;;8305043;28;20111;-58
2022/05/27 11:42:28;;;;;;;3.03;0.68;;;;;;;;;;8303152;28;20016;-58
2022/05/27 11:46:37;;;;;;;0.60;0.60;;;;;;;;;;8302530;28;20029;-59
2022/05/27 11:50:56;;;;;;;0.55;0.55;;;;;;;;;;8304927;28;20024;-59
2022/05/27 11:55:01;;;;;;;0.85;0.55;;;;;;;;;;8304602;28;20837;-59
2022/05/27 11:59:18;;;;;;;3.10;0.77;;;;;;;;;;8305419;28;20596;-59
2022/05/27 12:03:41;;;;;;;0.60;0.60;;;;;;;;;;8301795;28;20083;-59
2022/05/27 12:07:55;;;;;;;1.45;0.88;;;;;;;;;;8298645;28;20855;-59
2022/05/27 12:11:58;;;;;;;1.83;0.60;;;;;;;;;;8301794;28;20094;-59
2022/05/27 12:16:01;;;;;;;4.07;0.88;;;;;;;;;;8299737;28;20377;-59
2022/05/27 12:20:02;;;;;;;0.77;0.70;;;;;;;;;;8302260;28;20032;-59
2022/05/27 12:24:14;;;;;;;2.67;0.70;;;;;;;;;;8302777;28;20029;-59
2022/05/27 12:28:16;;;;;;;4.13;0.70;;;;;;;;;;8307934;28;20579;-60
2022/05/27 12:32:18;;;;;;;4.30;0.70;;;;;;;;;;8306593;28;20152;-59
2022/05/27 12:36:25;;;;;;;1.65;0.70;;;;;;;;;;8311114;28;20025;-60
2022/05/27 12:40:29;;;;;;;4.00;0.80;;;;;;;;;;8309735;28;20060;-59
2022/05/27 12:44:29;;;;;;;0.60;0.60;;;;;;;;;;8307947;28;20033;-59
2022/05/27 12:48:37;;;;;;;2.43;0.90;;;;;;;;;;8308690;28;20603;-59
2022/05/27 12:52:50;;;;;;;2.13;0.77;;;;;;;;;;8308246;28;20752;-66
2022/05/27 13:01:20;;;;;;;1.95;0.65;;;;;;;;;;8306041;28;20036;-59
2022/05/27 13:05:22;;;;;;;1.98;0.50;;;;;;;;;;8309736;28;20140;-59
2022/05/27 13:09:34;;;;;;;2.80;0.65;;;;;;;;;;8307800;28;20029;-59
2022/05/27 13:13:34;;;;;;;1.13;0.55;;;;;;;;;;8309056;28;20048;-59
2022/05/27 13:17:36;;;;;;;1.40;0.50;;;;;;;;;;8307707;28;20060;-58
2022/05/27 13:21:40;;;;;;;2.70;0.63;;;;;;;;;;8309420;28;20033;-59
2022/05/27 13:25:43;;;;;;;1.10;0.50;;;;;;;;;;8307780;28;20047;-59
2022/05/27 13:29:49;;;;;;;0.77;0.60;;;;;;;;;;8308023;28;20632;-59
2022/05/27 13:33:52;;;;;;;0.50;0.50;;;;;;;;;;8304259;28;20048;-59
2022/05/27 13:37:54;;;;;;;2.22;0.50;;;;;;;;;;8307215;28;20021;-60
2022/05/27 13:41:54;;;;;;;0.50;0.50;;;;;;;;;;8309449;28;20044;-59
2022/05/27 13:46:06;;;;;;;0.70;0.70;;;;;;;;;;8306369;28;20486;-59
2022/05/27 13:50:22;;;;;;;8.23;0.80;;;;;;;;;;8309409;28;21016;-59
2022/05/27 13:54:30;;;;;;;6.45;0.98;;;;;;;;;;8307869;28;20052;-59
2022/05/27 13:58:30;;;;;;;1.95;0.73;;;;;;;;;;8308377;28;20052;-59
2022/05/27 14:02:36;;;;;;;0.60;0.60;;;;;;;;;;8307811;28;20038;-59
2022/05/27 14:06:36;;;;;;;0.82;0.80;;;;;;;;;;8307014;28;20036;-60
2022/05/27 14:10:36;;;;;;;2.05;0.80;;;;;;;;;;8308993;28;20025;-60
2022/05/27 14:14:44;;;;;;;1.33;0.90;;;;;;;;;;8307162;28;20038;-59
2022/05/27 14:18:44;;;;;;;1.83;0.90;;;;;;;;;;8306763;28;20045;-59
2022/05/27 14:22:46;;;;;;;0.77;0.70;;;;;;;;;;8306694;28;20017;-59
2022/05/27 14:26:46;;;;;;;2.60;0.80;;;;;;;;;;8309386;28;20021;-59
2022/05/27 14:30:52;;;;;;;0.90;0.90;;;;;;;;;;8305894;28;20773;-60
2022/05/27 14:34:54;;;;;;;1.30;0.90;;;;;;;;;;8305175;28;20061;-59
2022/05/27 14:38:57;;;;;;;3.28;0.80;;;;;;;;;;8307667;28;20086;-59
2022/05/27 14:42:57;;;;;;;1.30;0.80;;;;;;;;;;8307362;28;20190;-59
2022/05/27 14:47:01;;;;;;;2.38;0.90;;;;;;;;;;8303812;28;20036;-59
2022/05/27 14:51:01;;;;;;;;;;;;;;;;;;8307244;28;20026;-59
2022/05/27 14:55:10;;;;;;;2.13;0.95;;;;;;;;;;8311180;28;20468;-60
2022/05/27 14:59:16;;;;;;;2.72;0.90;;;;;;;;;;8305063;28;20033;-60
2022/05/27 15:03:42;;;;;;;1.67;0.90;;;;;;;;;;8304732;28;20034;-59
2022/05/27 15:07:48;;;;;;;1.50;0.98;;;;;;;;;;8300657;28;20130;-59
2022/05/27 15:11:48;;;;;;;1.10;0.95;;;;;;;;;;8304623;28;20037;-60
2022/05/27 15:15:49;;;;;;;1.50;0.93;;;;;;;;;;8303511;28;20086;-60
2022/05/27 15:19:54;;;;;;;1.95;1.00;;;;;;;;;;8304400;28;20052;-59
2022/05/27 15:23:56;;;;;;;1.63;1.10;;;;;;;;;;8304627;28;20137;-59
2022/05/27 15:36:35;;;;;;;2.25;1.17;;;;;;;;;;8305597;28;20032;-59
2022/05/27 15:40:39;;;;;;;1.75;1.02;;;;;;;;;;8303910;28;20082;-59
2022/05/27 15:44:39;;;;;;;;;;;;;;;;;;8305744;28;20033;-59
2022/05/27 15:48:40;;;;;;;2.55;1.30;;;;;;;;;;8307776;28;20695;-59
2022/05/27 15:52:40;;;;;;;6.85;1.20;;;;;;;;;;8305411;28;20877;-59
2022/05/27 15:56:40;;;;;;;3.25;1.20;;;;;;;;;;8303414;28;20029;-59
2022/05/27 16:00:41;;;;;;;2.53;1.20;;;;;;;;;;8300555;28;20040;-59
2022/05/27 16:04:42;;;;;;;2.00;1.17;;;;;;;;;;8303924;28;20596;-60
2022/05/27 16:08:42;;;;;;;2.88;1.30;;;;;;;;;;8302112;28;20030;-59
2022/05/27 16:12:42;;;;;;;2.23;1.03;;;;;;;;;;8304690;28;20032;-60
2022/05/27 16:21:01;;;;;;;1.45;1.00;;;;;;;;;;8303627;28;20561;-60
2022/05/27 16:25:02;;;;;;;1.77;1.30;;;;;;;;;;8298990;28;20524;-60
2022/05/27 16:29:04;;;;;;;4.53;1.30;;;;;;;;;;8299041;28;20029;-59
2022/05/27 16:33:04;;;;;;;3.40;1.40;;;;;;;;;;8298450;28;20033;-59
2022/05/27 16:37:06;;;;;;;3.57;1.50;;;;;;;;;;8298555;28;20029;-59
2022/05/27 16:41:06;;;;;;;2.80;1.40;;;;;;;;;;8299417;28;20021;-59
2022/05/27 16:45:07;;;;;;;2.63;1.27;;;;;;;;;;8297386;28;20025;-61
2022/05/27 16:49:08;;;;;;;3.90;1.17;;;;;;;;;;8298781;28;20045;-59
2022/05/27 16:53:10;;;;;;;3.33;1.40;;;;;;;;;;8297609;28;20032;-59
2022/05/27 16:57:10;;;;;;;3.50;1.60;;;;;;;;;;8294585;28;20490;-59
2022/05/27 17:01:11;;;;;;;4.93;1.90;;;;;;;;;;8293601;28;20599;-60
2022/05/27 17:05:12;;;;;;;2.03;1.40;;;;;;;;;;8298806;28;20398;-59
2022/05/27 17:09:12;;;;;;;3.40;1.55;;;;;;;;;;8298579;28;20168;-60
2022/05/27 17:13:12;;;;;;;6.43;1.60;;;;;;;;;;8300380;28;20029;-60
2022/05/27 17:17:13;;;;;;;1.98;1.40;;;;;;;;;;8304217;28;20041;-60
2022/05/27 17:21:13;;;;;;;2.30;1.40;;;;;;;;;;8303649;28;20042;-59
2022/05/27 17:25:13;;;;;;;1.80;1.53;;;;;;;;;;8305503;28;20018;-60
2022/05/27 17:29:13;;;;;;;3.55;1.70;;;;;;;;;;8305223;28;20275;-59
2022/05/27 17:33:14;;;;;;;2.47;1.50;;;;;;;;;;8302252;28;20037;-60
2022/05/27 17:37:14;;;;;;;6.13;1.58;;;;;;;;;;8306361;28;20063;-60
2022/05/27 17:41:14;;;;;;;2.75;1.50;;;;;;;;;;8303909;28;20725;-59
2022/05/27 17:45:15;;;;;;;2.85;1.42;;;;;;;;;;8302885;28;20072;-60
2022/05/27 17:53:36;;;;;;;3.08;1.38;;;;;;;;;;8309211;28;20474;-59
2022/05/27 17:57:36;;;;;;;6.25;1.77;;;;;;;;;;8309569;28;20151;-59
2022/05/27 18:01:36;;;;;;;2.20;1.40;;;;;;;;;;8308734;28;20100;-60
2022/05/27 18:05:39;;;;;;;2.58;1.60;;;;;;;;;;8308591;28;20036;-60
2022/05/27 18:09:39;;;;;;;3.60;1.73;;;;;;;;;;8306503;28;20033;-60
2022/05/27 18:13:41;;;;;;;2.28;1.40;;;;;;;;;;8307827;28;20297;-59
2022/05/27 18:17:42;;;;;;;4.75;1.60;;;;;;;;;;8306848;28;20589;-60
2022/05/27 18:21:42;;;;;;;3.50;1.60;;;;;;;;;;8306422;28;20098;-59
2022/05/27 18:25:42;;;;;;;3.15;1.50;;;;;;;;;;8304840;28;20037;-59
2022/05/27 18:29:42;;;;;;;2.73;1.60;;;;;;;;;;8306577;28;20044;-60
2022/05/27 18:33:43;;;;;;;3.65;1.70;;;;;;;;;;8305920;28;20032;-60
2022/05/27 18:37:44;;;;;;;3.85;1.73;;;;;;;;;;8302886;28;20025;-60
2022/05/27 18:41:44;;;;;;;2.30;1.33;;;;;;;;;;8306751;28;20075;-60
2022/05/27 18:45:44;;;;;;;2.58;1.50;;;;;;;;;;8304323;28;20127;-60
2022/05/27 18:49:45;;;;;;;2.07;1.40;;;;;;;;;;8305447;28;20049;-60
2022/05/27 18:53:47;;;;;;;2.42;1.45;;;;;;;;;;8303757;28;20783;-60
2022/05/27 18:57:48;;;;;;;4.78;1.65;;;;;;;;;;8304472;28;20031;-60
2022/05/27 19:01:48;;;;;;;2.58;1.40;;;;;;;;;;8305522;28;20029;-60
2022/05/27 19:05:49;;;;;;;1.92;1.45;;;;;;;;;;8306043;28;20057;-59
2022/05/27 19:09:49;;;;;;;2.05;1.27;;;;;;;;;;8302921;28;20032;-61
2022/05/27 19:13:49;;;;;;;5.83;1.90;;;;;;;;;;8306083;28;20021;-60
2022/05/27 19:17:50;;;;;;;4.40;1.40;;;;;;;;;;8305372;28;20315;-59
2022/05/27 19:21:50;;;;;;;2.60;1.50;;;;;;;;;;8303164;28;20799;-59
2022/05/27 19:25:50;;;;;;;5.57;1.70;;;;;;;;;;8306415;28;20117;-59
2022/05/27 19:29:50;;;;;;;3.20;1.40;;;;;;;;;;8302299;28;20033;-60
2022/05/27 19:33:51;;;;;;;3.10;1.40;;;;;;;;;;8301660;28;20044;-60
2022/05/27 19:37:51;;;;;;;5.50;1.42;;;;;;;;;;8305956;28;20848;-59
2022/05/27 19:41:51;;;;;;;4.18;1.70;;;;;;;;;;8303402;28;20128;-60
2022/05/27 19:45:51;;;;;;;4.75;1.60;;;;;;;;;;8303816;28;20033;-60
2022/05/27 19:49:51;;;;;;;5.35;1.70;;;;;;;;;;8305053;28;20028;-59
2022/05/27 19:53:53;;;;;;;4.68;2.10;;;;;;;;;;8305416;28;20033;-59
2022/05/27 20:06:31;;;;;;;2.90;1.70;;;;;;;;;;8304551;28;20681;-60
2022/05/27 20:10:33;;;;;;;6.57;1.75;;;;;;;;;;8301822;28;20132;-59
2022/05/27 20:14:33;;;;;;;7.70;1.92;;;;;;;;;;8303776;28;20025;-59
2022/05/27 20:18:33;;;;;;;7.28;1.90;;;;;;;;;;8302533;28;20095;-59
2022/05/27 20:22:34;;;;;;;6.30;2.10;;;;;;;;;;8301908;28;20556;-58
2022/05/27 20:26:34;;;;;;;4.07;1.70;;;;;;;;;;8304512;28;20522;-58
2022/05/27 20:30:35;;;;;;;3.97;1.73;;;;;;;;;;8302359;28;20036;-58
2022/05/27 20:34:39;;;;;;;5.15;1.67;;;;;;;;;;8305554;28;20026;-59
2022/05/27 20:38:39;;;;;;;;;;;;;;;;;;8306187;28;20438;-58
2022/05/27 20:42:39;;;;;;;7.00;2.10;;;;;;;;;;8301700;28;19971;-60
2022/05/27 20:46:40;;;;;;;6.60;1.80;;;;;;;;;;8308729;28;20041;-59
2022/05/27 20:50:41;;;;;;;5.88;1.85;;;;;;;;;;8310933;28;20047;-59
2022/05/27 20:54:41;;;;;;;7.88;2.00;;;;;;;;;;8311877;28;20547;-58
2022/05/27 20:58:41;;;;;;;5.93;1.92;;;;;;;;;;8311518;28;20458;-59
2022/05/27 21:02:42;;;;;;;6.80;1.92;;;;;;;;;;8310888;28;20075;-59
2022/05/27 21:06:42;;;;;;;8.60;1.90;;;;;;;;;;8313910;28;20037;-59
2022/05/27 21:10:42;;;;;;;6.38;1.70;;;;;;;;;;8310676;28;20033;-58
2022/05/27 21:14:43;;;;;;;6.45;1.80;;;;;;;;;;8308996;28;20076;-59
2022/05/27 21:18:43;;;;;;;5.97;1.55;;;;;;;;;;8310033;28;20131;-58
2022/05/27 21:22:43;;;;;;;8.93;1.77;;;;;;;;;;8310248;28;20095;-59
2022/05/27 21:26:43;;;;;;;4.87;1.50;;;;;;;;;;8312313;28;20032;-59
2022/05/27 21:30:44;;;;;;;10.85;1.90;;;;;;;;;;8307396;28;20033;-59
2022/05/27 21:34:44;;;;;;;5.97;1.65;;;;;;;;;;8310826;28;20087;-59
2022/05/27 21:38:44;;;;;;;4.75;1.92;;;;;;;;;;8309725;28;20406;-58
2022/05/27 21:42:44;;;;;;;5.72;1.90;;;;;;;;;;8312292;28;20025;-59
2022/05/27 21:46:47;;;;;;;5.03;1.50;;;;;;;;;;8308643;28;21102;-58
2022/05/27 21:50:47;;;;;;;6.25;1.70;;;;;;;;;;8311835;28;20128;-59
2022/05/27 21:54:47;;;;;;;7.57;2.05;;;;;;;;;;8309554;28;20500;-59
2022/05/27 21:58:47;;;;;;;8.25;1.70;;;;;;;;;;8309372;28;20029;-59
2022/05/27 22:02:48;;;;;;;4.38;1.63;;;;;;;;;;8306477;28;20037;-58
2022/05/27 22:06:48;;;;;;;7.63;1.60;;;;;;;;;;8309116;28;20025;-58
2022/05/27 22:15:09;;;;;;;8.40;1.60;;;;;;;;;;8306456;28;20079;-59
2022/05/27 22:19:09;;;;;;;4.80;1.58;;;;;;;;;;8306514;28;20040;-58
2022/05/27 22:23:09;;;;;;;4.93;2.00;;;;;;;;;;8307542;28;20025;-58
2022/05/27 22:27:09;;;;;;;4.35;1.42;;;;;;;;;;8309535;28;20881;-58
2022/05/27 22:31:10;;;;;;;8.40;1.90;;;;;;;;;;8310171;28;20046;-58
2022/05/27 22:35:13;;;;;;;6.55;1.90;;;;;;;;;;8308393;28;20026;-59
2022/05/27 22:39:14;;;;;;;5.03;1.65;;;;;;;;;;8306972;28;20022;-58
2022/05/27 22:43:14;;;;;;;7.97;1.77;;;;;;;;;;8306570;28;20025;-58
2022/05/27 22:47:15;;;;;;;4.60;1.42;;;;;;;;;;8309055;28;20760;-58
2022/05/27 22:51:15;;;;;;;8.98;1.88;;;;;;;;;;8306218;28;20385;-59
2022/05/27 22:55:15;;;;;;;8.20;2.10;;;;;;;;;;8310661;28;20079;-58
2022/05/27 22:59:16;;;;;;;7.22;1.63;;;;;;;;;;8307461;28;20274;-59
2022/05/27 23:03:16;;;;;;;9.23;1.80;;;;;;;;;;8305739;28;20775;-58
2022/05/27 23:07:16;;;;;;;4.45;1.38;;;;;;;;;;8308185;28;20040;-58
2022/05/27 23:11:17;;;;;;;8.07;1.83;;;;;;;;;;8307307;28;20061;-58
2022/05/27 23:19:36;;;;;;;6.03;1.67;;;;;;;;;;8306659;28;20075;-58
2022/05/27 23:23:36;;;;;;;6.18;1.70;;;;;;;;;;8303902;28;20473;-59
2022/05/27 23:27:37;;;;;;;6.35;1.45;;;;;;;;;;8307252;28;20029;-58
2022/05/27 23:31:39;;;;;;;8.02;1.85;;;;;;;;;;8307485;28;21105;-58
2022/05/27 23:35:44;;;;;;;3.20;1.55;;;;;;;;;;8304543;28;20870;-59
2022/05/27 23:39:45;;;;;;;9.48;1.73;;;;;;;;;;8306579;28;20102;-58
2022/05/27 23:43:45;;;;;;;6.43;1.63;;;;;;;;;;8306817;28;20037;-57
2022/05/27 23:47:45;;;;;;;8.02;1.67;;;;;;;;;;8308632;28;20111;-58
2022/05/27 23:51:45;;;;;;;7.13;1.55;;;;;;;;;;8303704;28;20036;-58
2022/05/27 23:55:45;;;;;;;7.60;1.42;;;;;;;;;;8302670;28;20039;-57
2022/05/27 23:59:46;;;;;;;7.05;1.85;;;;;;;;;;8307806;28;20025;-59
